Ventura — ZCDT2 — position and weather

sailwx.info

Track history (hours):
 
Tides and Currents Weather Stations Pressure Air Temp Water Temp Dewpoint Dewpoint Depression Visibility Wind Speed Wind Dir Waves Ship Positions

Ventura

Last reported at 2016-May-26 22:18 UTC. Time now 2016-May-27 04:38 UTC.
Position N 38°55' E 004°24'.

Length 288 m.

Type: Passenger vessel. MMSI: 310562000.

Date/timePositionNaut miles runAvg speedWind from/ knotsBaromVisibWave heightAir tempDewpointWater temp
2016-May-26 22:18N 38°55' E 004°24'1616.2
2016-May-26 21:21N 38°56' E 004°04'1316.3
2016-May-26 20:32N 38°58' E 003°47'1616.7
2016-May-26 19:33N 38°59' E 003°26'1717.0
2016-May-26 18:33N 39°01' E 003°05'1615.6
2016-May-26 17:33N 39°09' E 002°47'1716.9
2016-May-26 16:33N 39°25' E 002°41'9 1.0
2016-May-26 08:21N 39°33' E 002°38'0 0.0
2016-May-26 07:33N 39°33' E 002°38'0 0.3
2016-May-26 06:33N 39°33' E 002°38'1110.5
2016-May-26 05:33N 39°23' E 002°34'1616.2
2016-May-26 04:33N 39°09' E 002°23'1616.4
2016-May-26 03:33N 38°57' E 002°08'1616.5
2016-May-26 02:33N 38°46' E 001°54'1816.5
2016-May-26 01:26N 38°32' E 001°37'1516.8
2016-May-26 00:31N 38°22' E 001°23'3316.6
2016-May-25 22:33N 38°03' E 000°49'1731.0
2016-May-25 22:00N 37°54' E 000°30'2 4.9 999 / 31011.010.8 0.520.014.918.2
2016-May-25 21:33N 37°52' E 000°29'1919.4
2016-May-25 20:33N 37°41' E 000°08'1919.2
2016-May-25 19:32N 37°30' W 000°12'1919.1
2016-May-25 18:33N 37°19' W 000°31'1918.9
2016-May-25 17:33N 37°08' W 000°50'1918.9
2016-May-25 16:33N 36°57' W 001°10'21319.4
2016-May-25 05:33N 35°58' W 005°24'24617.4
2016-May-24 15:26N 37°57' W 009°53'1920.8
2016-May-24 14:32N 38°15' W 009°59'2020.8
2016-May-24 13:33N 38°35' W 010°05'2120.7
2016-May-24 12:33N 38°55' W 010°05'2120.7
2016-May-24 11:32N 39°16' W 010°08'35721.6
2016-May-23 19:00N 45°06' W 008°30'23418.6 090 / 221022.210.8 0.514.0 9.114.7
2016-May-23 06:23N 48°25' W 005°30'1618.8
2016-May-23 05:33N 48°37' W 005°16'1817.6
2016-May-23 04:33N 48°50' W 004°56'7619.0
2016-May-23 00:33N 49°40' W 003°29'2120.8
2016-May-22 23:33N 49°53' W 003°05'2019.5
2016-May-22 22:33N 50°04' W 002°39'2217.6
2016-May-22 21:18N 50°11' W 002°06'1316.4
2016-May-22 20:30N 50°18' W 001°49'1516.1
2016-May-22 19:33N 50°24' W 001°27'1616.5
2016-May-22 18:33N 50°32' W 001°04'1212.1
2016-May-22 17:33N 50°44' W 001°03'1212.0
2016-May-22 16:34N 50°50' W 001°19'6 5.8
2016-May-22 15:32N 50°54' W 001°26'0 0.0
2016-May-22 14:20N 50°54' W 001°26'0 0.0
2016-May-22 13:32N 50°54' W 001°26'0 0.0
2016-May-22 12:26N 50°54' W 001°26'0 0.0
2016-May-22 11:32N 50°54' W 001°26'0 0.0
2016-May-22 10:32N 50°54' W 001°26'0 0.0
2016-May-22 09:32N 50°54' W 001°26'0 0.0
2016-May-22 08:29N 50°54' W 001°26'0 0.0
2016-May-22 07:29N 50°54' W 001°26'0 0.0
2016-May-22 06:29N 50°54' W 001°26'1 1.0
2016-May-22 05:33N 50°54' W 001°25'8 8.4
2016-May-22 04:33N 50°46' W 001°18'1514.9
2016-May-22 03:34N 50°40' W 000°57'1514.6
2016-May-22 02:34N 50°35' W 000°35'1717.1
2016-May-22 01:34N 50°33' W 000°09'1716.7
2016-May-22 00:34N 50°36' E 000°17'1515.3
2016-May-21 23:33N 50°40' E 000°40'2914.3
2016-May-21 21:32N 50°59' E 001°16'1515.1
2016-May-21 20:34N 51°07' E 001°35'1616.0
2016-May-21 19:34N 51°19' E 001°52'1313.4
2016-May-21 18:33N 51°22' E 002°13'1615.5
2016-May-21 17:34N 51°23' E 002°37'1413.8
2016-May-21 16:33N 51°24' E 002°60'9 8.6
2016-May-21 15:32N 51°20' E 003°12'0 0.0
2016-May-21 14:29N 51°20' E 003°12'0 0.0
2016-May-21 13:32N 51°20' E 003°12'0 0.0
2016-May-21 12:32N 51°20' E 003°12'0 0.0
2016-May-21 11:32N 51°20' E 003°12'0 0.0
2016-May-21 10:32N 51°20' E 003°12'0 0.0
2016-May-21 09:32N 51°20' E 003°12'0 0.0
2016-May-21 08:32N 51°20' E 003°12'0 0.0
2016-May-21 07:32N 51°20' E 003°12'0 0.0
2016-May-21 06:32N 51°20' E 003°12'0 0.0
2016-May-21 05:33N 51°20' E 003°12'7 6.6
2016-May-21 04:33N 51°24' E 003°04'1212.5
2016-May-21 03:33N 51°22' E 002°45'7 6.6
2016-May-21 02:33N 51°21' E 002°34'8 7.9
2016-May-21 01:33N 51°19' E 002°22'8 8.4
2016-May-21 00:33N 51°16' E 002°10'9 9.2
2016-May-20 23:33N 51°10' E 001°58'9 9.1
2016-May-20 22:33N 51°06' E 001°45'10 9.9
2016-May-20 21:33N 50°60' E 001°34'1111.0
2016-May-20 20:33N 50°50' E 001°25'1212.0
2016-May-20 19:33N 50°40' E 001°16'2612.3
2016-May-20 17:24N 50°27' E 000°39'1112.9
2016-May-20 16:34N 50°24' E 000°23'1514.9
2016-May-20 15:33N 50°19' E 000°00'1514.6
2016-May-20 14:33N 50°14' W 000°21'1413.9
2016-May-20 13:33N 50°09' W 000°41'1111.3
2016-May-20 12:33N 50°05' W 000°58'1211.7
2016-May-20 11:33N 50°01' W 001°15'1312.4
2016-May-20 10:32N 49°57' W 001°33'2812.9
2016-May-20 08:21N 49°37' W 002°05'9 0.4
2016-May-19 10:32N 49°29' W 002°01'0 0.0
2016-May-19 09:05N 49°29' W 002°01'2 2.8
2016-May-19 08:33N 49°28' W 002°02'1312.6
2016-May-19 07:33N 49°23' W 002°20'7 7.5
2016-May-19 06:33N 49°27' W 002°30'9 7.9
2016-May-19 05:29N 49°23' W 002°41'3110.7
2016-May-19 02:33N 49°50' W 003°05'1010.6
2016-May-19 01:33N 49°58' W 002°54'1212.1
2016-May-19 00:33N 50°01' W 002°36'5213.1
2016-May-18 20:33N 50°26' W 001°23'1110.8
2016-May-18 19:33N 50°30' W 001°07'1010.2
2016-May-18 18:33N 50°38' W 000°58'10 9.6
2016-May-18 17:33N 50°45' W 001°08'9 9.4
2016-May-18 16:33N 50°51' W 001°20'4 3.6
2016-May-18 15:33N 50°54' W 001°24'0 0.0
2016-May-18 14:33N 50°54' W 001°24'0 0.0
2016-May-18 13:33N 50°54' W 001°24'0 0.0
2016-May-18 12:33N 50°54' W 001°24'0 0.0
2016-May-18 11:33N 50°54' W 001°24'0 0.0
2016-May-18 10:33N 50°54' W 001°24'0 0.0
2016-May-18 09:33N 50°54' W 001°24'0 0.0
2016-May-18 08:33N 50°54' W 001°24'0 0.0
2016-May-18 07:33N 50°54' W 001°24'0 0.0
2016-May-18 06:33N 50°54' W 001°24'0 0.0
2016-May-18 05:33N 50°54' W 001°24'7 6.9
2016-May-18 04:33N 50°48' W 001°18'1312.6
2016-May-18 03:34N 50°43' W 001°00'1111.3
2016-May-18 02:33N 50°32' W 001°06'2217.6
2016-May-18 01:20N 50°23' W 001°37'4515.7
2016-May-17 22:28N 49°55' W 002°31'1617.8
2016-May-17 21:33N 49°51' W 002°55'1918.1
2016-May-17 20:30N 49°38' W 003°18'1718.4
2016-May-17 19:33N 49°28' W 003°39'4518.7
2016-May-17 17:07N 49°01' W 004°35'1119.0
2016-May-17 16:33N 48°54' W 004°48'1919.3
2016-May-17 15:33N 48°41' W 005°10'2019.9
2016-May-17 14:33N 48°26' W 005°30'9921.7
2016-May-17 10:00N 47°00' W 006°42'   1020.9 5.4 18.111.413.9
Track history (hours):
 
Tides and Currents Weather Stations Pressure Air Temp Water Temp Dewpoint Dewpoint Depression Visibility Wind Speed Wind Dir Waves Ship Positions

Ventura

Last reported at 2016-May-26 22:18 UTC. Time now 2016-May-27 04:38 UTC.
Position N 38°55' E 004°24'.

Length 288 m.

Type: Passenger vessel. MMSI: 310562000.

Date/timePositionNaut miles runAvg speedWind from/ knotsBaromVisibWave heightAir tempDewpointWater temp
2016-May-26 22:18N 38°55' E 004°24'1616.2
2016-May-26 21:21N 38°56' E 004°04'1316.3
2016-May-26 20:32N 38°58' E 003°47'1616.7
2016-May-26 19:33N 38°59' E 003°26'1717.0
2016-May-26 18:33N 39°01' E 003°05'1615.6
2016-May-26 17:33N 39°09' E 002°47'1716.9
2016-May-26 16:33N 39°25' E 002°41'9 1.0
2016-May-26 08:21N 39°33' E 002°38'0 0.0
2016-May-26 07:33N 39°33' E 002°38'0 0.3
2016-May-26 06:33N 39°33' E 002°38'1110.5
2016-May-26 05:33N 39°23' E 002°34'1616.2
2016-May-26 04:33N 39°09' E 002°23'1616.4
2016-May-26 03:33N 38°57' E 002°08'1616.5
2016-May-26 02:33N 38°46' E 001°54'1816.5
2016-May-26 01:26N 38°32' E 001°37'1516.8
2016-May-26 00:31N 38°22' E 001°23'3316.6
2016-May-25 22:33N 38°03' E 000°49'1731.0
2016-May-25 22:00N 37°54' E 000°30'2 4.9 999 / 31011.010.8 0.520.014.918.2
2016-May-25 21:33N 37°52' E 000°29'1919.4
2016-May-25 20:33N 37°41' E 000°08'1919.2
2016-May-25 19:32N 37°30' W 000°12'1919.1
2016-May-25 18:33N 37°19' W 000°31'1918.9
2016-May-25 17:33N 37°08' W 000°50'1918.9
2016-May-25 16:33N 36°57' W 001°10'21319.4
2016-May-25 05:33N 35°58' W 005°24'24617.4
2016-May-24 15:26N 37°57' W 009°53'1920.8
2016-May-24 14:32N 38°15' W 009°59'2020.8
2016-May-24 13:33N 38°35' W 010°05'2120.7
2016-May-24 12:33N 38°55' W 010°05'2120.7
2016-May-24 11:32N 39°16' W 010°08'35721.6
2016-May-23 19:00N 45°06' W 008°30'23418.6 090 / 221022.210.8 0.514.0 9.114.7
2016-May-23 06:23N 48°25' W 005°30'1618.8
2016-May-23 05:33N 48°37' W 005°16'1817.6
2016-May-23 04:33N 48°50' W 004°56'7619.0
2016-May-23 00:33N 49°40' W 003°29'2120.8
2016-May-22 23:33N 49°53' W 003°05'2019.5
2016-May-22 22:33N 50°04' W 002°39'2217.6
2016-May-22 21:18N 50°11' W 002°06'1316.4
2016-May-22 20:30N 50°18' W 001°49'1516.1
2016-May-22 19:33N 50°24' W 001°27'1616.5
2016-May-22 18:33N 50°32' W 001°04'1212.1
2016-May-22 17:33N 50°44' W 001°03'1212.0
2016-May-22 16:34N 50°50' W 001°19'6 5.8
2016-May-22 15:32N 50°54' W 001°26'0 0.0
2016-May-22 14:20N 50°54' W 001°26'0 0.0
2016-May-22 13:32N 50°54' W 001°26'0 0.0
2016-May-22 12:26N 50°54' W 001°26'0 0.0
2016-May-22 11:32N 50°54' W 001°26'0 0.0
2016-May-22 10:32N 50°54' W 001°26'0 0.0
2016-May-22 09:32N 50°54' W 001°26'0 0.0
2016-May-22 08:29N 50°54' W 001°26'0 0.0
2016-May-22 07:29N 50°54' W 001°26'0 0.0
2016-May-22 06:29N 50°54' W 001°26'1 1.0
2016-May-22 05:33N 50°54' W 001°25'8 8.4
2016-May-22 04:33N 50°46' W 001°18'1514.9
2016-May-22 03:34N 50°40' W 000°57'1514.6
2016-May-22 02:34N 50°35' W 000°35'1717.1
2016-May-22 01:34N 50°33' W 000°09'1716.7
2016-May-22 00:34N 50°36' E 000°17'1515.3
2016-May-21 23:33N 50°40' E 000°40'2914.3
2016-May-21 21:32N 50°59' E 001°16'1515.1
2016-May-21 20:34N 51°07' E 001°35'1616.0
2016-May-21 19:34N 51°19' E 001°52'1313.4
2016-May-21 18:33N 51°22' E 002°13'1615.5
2016-May-21 17:34N 51°23' E 002°37'1413.8
2016-May-21 16:33N 51°24' E 002°60'9 8.6
2016-May-21 15:32N 51°20' E 003°12'0 0.0
2016-May-21 14:29N 51°20' E 003°12'0 0.0
2016-May-21 13:32N 51°20' E 003°12'0 0.0
2016-May-21 12:32N 51°20' E 003°12'0 0.0
2016-May-21 11:32N 51°20' E 003°12'0 0.0
2016-May-21 10:32N 51°20' E 003°12'0 0.0
2016-May-21 09:32N 51°20' E 003°12'0 0.0
2016-May-21 08:32N 51°20' E 003°12'0 0.0
2016-May-21 07:32N 51°20' E 003°12'0 0.0
2016-May-21 06:32N 51°20' E 003°12'0 0.0
2016-May-21 05:33N 51°20' E 003°12'7 6.6
2016-May-21 04:33N 51°24' E 003°04'1212.5
2016-May-21 03:33N 51°22' E 002°45'7 6.6
2016-May-21 02:33N 51°21' E 002°34'8 7.9
2016-May-21 01:33N 51°19' E 002°22'8 8.4
2016-May-21 00:33N 51°16' E 002°10'9 9.2
2016-May-20 23:33N 51°10' E 001°58'9 9.1
2016-May-20 22:33N 51°06' E 001°45'10 9.9
2016-May-20 21:33N 50°60' E 001°34'1111.0
2016-May-20 20:33N 50°50' E 001°25'1212.0
2016-May-20 19:33N 50°40' E 001°16'2612.3
2016-May-20 17:24N 50°27' E 000°39'1112.9
2016-May-20 16:34N 50°24' E 000°23'1514.9
2016-May-20 15:33N 50°19' E 000°00'1514.6
2016-May-20 14:33N 50°14' W 000°21'1413.9
2016-May-20 13:33N 50°09' W 000°41'1111.3
2016-May-20 12:33N 50°05' W 000°58'1211.7
2016-May-20 11:33N 50°01' W 001°15'1312.4
2016-May-20 10:32N 49°57' W 001°33'2812.9
2016-May-20 08:21N 49°37' W 002°05'9 0.4
2016-May-19 10:32N 49°29' W 002°01'0 0.0
2016-May-19 09:05N 49°29' W 002°01'2 2.8
2016-May-19 08:33N 49°28' W 002°02'1312.6
2016-May-19 07:33N 49°23' W 002°20'7 7.5
2016-May-19 06:33N 49°27' W 002°30'9 7.9
2016-May-19 05:29N 49°23' W 002°41'3110.7
2016-May-19 02:33N 49°50' W 003°05'1010.6
2016-May-19 01:33N 49°58' W 002°54'1212.1
2016-May-19 00:33N 50°01' W 002°36'5213.1
2016-May-18 20:33N 50°26' W 001°23'1110.8
2016-May-18 19:33N 50°30' W 001°07'1010.2
2016-May-18 18:33N 50°38' W 000°58'10 9.6
2016-May-18 17:33N 50°45' W 001°08'9 9.4
2016-May-18 16:33N 50°51' W 001°20'4 3.6
2016-May-18 15:33N 50°54' W 001°24'0 0.0
2016-May-18 14:33N 50°54' W 001°24'0 0.0
2016-May-18 13:33N 50°54' W 001°24'0 0.0
2016-May-18 12:33N 50°54' W 001°24'0 0.0
2016-May-18 11:33N 50°54' W 001°24'0 0.0
2016-May-18 10:33N 50°54' W 001°24'0 0.0
2016-May-18 09:33N 50°54' W 001°24'0 0.0
2016-May-18 08:33N 50°54' W 001°24'0 0.0
2016-May-18 07:33N 50°54' W 001°24'0 0.0
2016-May-18 06:33N 50°54' W 001°24'0 0.0
2016-May-18 05:33N 50°54' W 001°24'7 6.9
2016-May-18 04:33N 50°48' W 001°18'1312.6
2016-May-18 03:34N 50°43' W 001°00'1111.3
2016-May-18 02:33N 50°32' W 001°06'2217.6
2016-May-18 01:20N 50°23' W 001°37'4515.7
2016-May-17 22:28N 49°55' W 002°31'1617.8
2016-May-17 21:33N 49°51' W 002°55'1918.1
2016-May-17 20:30N 49°38' W 003°18'1718.4
2016-May-17 19:33N 49°28' W 003°39'4518.7
2016-May-17 17:07N 49°01' W 004°35'1119.0
2016-May-17 16:33N 48°54' W 004°48'1919.3
2016-May-17 15:33N 48°41' W 005°10'2019.9
2016-May-17 14:33N 48°26' W 005°30'9921.7
2016-May-17 10:00N 47°00' W 006°42'   1020.9 5.4 18.111.413.9

Dump ship's entire track history